sensor_id;sensor_type;location;lat;lon;timestamp;P1;durP1;ratioP1;P2;durP2;ratioP2
51692;SDS011;37777;53.066;21.638;2023-04-25T00:01:59;9.25;;;5.50;;
51692;SDS011;37777;53.066;21.638;2023-04-25T00:09:02;9.88;;;5.60;;
51692;SDS011;37777;53.066;21.638;2023-04-25T00:16:04;13.25;;;5.50;;
51692;SDS011;37777;53.066;21.638;2023-04-25T00:23:08;9.55;;;5.63;;
51692;SDS011;37777;53.066;21.638;2023-04-25T00:30:10;8.65;;;5.55;;
51692;SDS011;37777;53.066;21.638;2023-04-25T00:37:12;14.68;;;5.53;;
51692;SDS011;37777;53.066;21.638;2023-04-25T00:44:14;10.63;;;6.22;;
51692;SDS011;37777;53.066;21.638;2023-04-25T00:51:21;7.50;;;5.43;;
51692;SDS011;37777;53.066;21.638;2023-04-25T00:58:23;10.20;;;6.20;;
51692;SDS011;37777;53.066;21.638;2023-04-25T01:05:25;8.50;;;5.25;;
51692;SDS011;37777;53.066;21.638;2023-04-25T01:12:27;14.13;;;5.90;;
51692;SDS011;37777;53.066;21.638;2023-04-25T01:19:29;12.45;;;6.80;;
51692;SDS011;37777;53.066;21.638;2023-04-25T01:26:31;10.70;;;6.70;;
51692;SDS011;37777;53.066;21.638;2023-04-25T01:33:33;21.45;;;7.40;;
51692;SDS011;37777;53.066;21.638;2023-04-25T01:40:37;9.25;;;6.60;;
51692;SDS011;37777;53.066;21.638;2023-04-25T01:47:40;8.82;;;5.63;;
51692;SDS011;37777;53.066;21.638;2023-04-25T01:54:44;7.97;;;5.45;;
51692;SDS011;37777;53.066;21.638;2023-04-25T02:01:46;17.92;;;8.35;;
51692;SDS011;37777;53.066;21.638;2023-04-25T02:08:48;31.67;;;9.10;;
51692;SDS011;37777;53.066;21.638;2023-04-25T02:15:50;17.33;;;6.53;;
51692;SDS011;37777;53.066;21.638;2023-04-25T02:22:52;13.15;;;5.78;;
51692;SDS011;37777;53.066;21.638;2023-04-25T02:29:54;9.20;;;5.93;;
51692;SDS011;37777;53.066;21.638;2023-04-25T02:36:56;10.85;;;7.18;;
51692;SDS011;37777;53.066;21.638;2023-04-25T02:43:57;9.25;;;5.82;;
51692;SDS011;37777;53.066;21.638;2023-04-25T02:50:59;17.00;;;6.50;;
51692;SDS011;37777;53.066;21.638;2023-04-25T02:58:01;6.65;;;5.55;;
51692;SDS011;37777;53.066;21.638;2023-04-25T03:05:03;12.82;;;5.70;;
51692;SDS011;37777;53.066;21.638;2023-04-25T03:12:05;15.23;;;6.78;;
51692;SDS011;37777;53.066;21.638;2023-04-25T03:19:07;10.90;;;6.45;;
51692;SDS011;37777;53.066;21.638;2023-04-25T03:26:08;16.85;;;7.47;;
51692;SDS011;37777;53.066;21.638;2023-04-25T03:33:11;11.27;;;6.43;;
51692;SDS011;37777;53.066;21.638;2023-04-25T03:40:13;12.82;;;6.53;;
51692;SDS011;37777;53.066;21.638;2023-04-25T03:47:15;10.02;;;6.38;;
51692;SDS011;37777;53.066;21.638;2023-04-25T03:54:17;17.27;;;8.32;;
51692;SDS011;37777;53.066;21.638;2023-04-25T04:01:18;14.27;;;8.48;;
51692;SDS011;37777;53.066;21.638;2023-04-25T04:08:20;18.30;;;11.20;;
51692;SDS011;37777;53.066;21.638;2023-04-25T04:15:22;21.23;;;11.68;;
51692;SDS011;37777;53.066;21.638;2023-04-25T04:22:24;22.20;;;11.70;;
51692;SDS011;37777;53.066;21.638;2023-04-25T04:29:26;23.02;;;13.00;;
51692;SDS011;37777;53.066;21.638;2023-04-25T04:36:28;19.38;;;11.73;;
51692;SDS011;37777;53.066;21.638;2023-04-25T04:43:30;19.88;;;12.40;;
51692;SDS011;37777;53.066;21.638;2023-04-25T04:50:34;19.42;;;12.35;;
51692;SDS011;37777;53.066;21.638;2023-04-25T04:57:37;20.77;;;12.00;;
51692;SDS011;37777;53.066;21.638;2023-04-25T05:04:40;17.95;;;11.55;;
51692;SDS011;37777;53.066;21.638;2023-04-25T05:11:42;23.10;;;12.13;;
51692;SDS011;37777;53.066;21.638;2023-04-25T05:18:43;19.17;;;12.88;;
51692;SDS011;37777;53.066;21.638;2023-04-25T05:25:45;19.05;;;12.77;;
51692;SDS011;37777;53.066;21.638;2023-04-25T05:32:47;22.38;;;12.60;;
51692;SDS011;37777;53.066;21.638;2023-04-25T05:39:49;17.35;;;11.70;;
51692;SDS011;37777;53.066;21.638;2023-04-25T05:46:51;23.50;;;13.35;;
51692;SDS011;37777;53.066;21.638;2023-04-25T05:53:53;16.20;;;10.65;;
51692;SDS011;37777;53.066;21.638;2023-04-25T06:00:55;19.17;;;11.32;;
51692;SDS011;37777;53.066;21.638;2023-04-25T06:07:57;20.30;;;12.45;;
51692;SDS011;37777;53.066;21.638;2023-04-25T06:14:59;20.02;;;13.23;;
51692;SDS011;37777;53.066;21.638;2023-04-25T06:22:01;18.88;;;12.68;;
51692;SDS011;37777;53.066;21.638;2023-04-25T06:29:03;19.23;;;12.35;;
51692;SDS011;37777;53.066;21.638;2023-04-25T06:36:05;20.83;;;13.05;;
51692;SDS011;37777;53.066;21.638;2023-04-25T06:43:06;15.60;;;11.43;;
51692;SDS011;37777;53.066;21.638;2023-04-25T06:50:08;14.82;;;10.50;;
51692;SDS011;37777;53.066;21.638;2023-04-25T06:57:10;18.33;;;11.77;;
51692;SDS011;37777;53.066;21.638;2023-04-25T07:04:12;15.77;;;11.75;;
51692;SDS011;37777;53.066;21.638;2023-04-25T07:11:15;14.18;;;10.20;;
51692;SDS011;37777;53.066;21.638;2023-04-25T07:18:17;12.43;;;8.70;;
51692;SDS011;37777;53.066;21.638;2023-04-25T07:25:19;12.70;;;8.25;;
51692;SDS011;37777;53.066;21.638;2023-04-25T07:32:21;12.43;;;8.43;;
51692;SDS011;37777;53.066;21.638;2023-04-25T07:39:23;12.77;;;6.32;;
51692;SDS011;37777;53.066;21.638;2023-04-25T07:46:25;13.68;;;8.70;;
51692;SDS011;37777;53.066;21.638;2023-04-25T07:53:27;14.02;;;7.53;;
51692;SDS011;37777;53.066;21.638;2023-04-25T08:00:28;10.27;;;8.20;;
51692;SDS011;37777;53.066;21.638;2023-04-25T08:07:30;9.93;;;6.68;;
51692;SDS011;37777;53.066;21.638;2023-04-25T08:14:32;7.75;;;6.05;;
51692;SDS011;37777;53.066;21.638;2023-04-25T08:21:37;11.60;;;5.80;;
51692;SDS011;37777;53.066;21.638;2023-04-25T08:28:39;6.78;;;5.10;;
51692;SDS011;37777;53.066;21.638;2023-04-25T08:35:41;7.90;;;3.42;;
51692;SDS011;37777;53.066;21.638;2023-04-25T08:42:42;7.00;;;4.90;;
51692;SDS011;37777;53.066;21.638;2023-04-25T08:49:44;8.52;;;4.57;;
51692;SDS011;37777;53.066;21.638;2023-04-25T08:56:47;6.82;;;4.70;;
51692;SDS011;37777;53.066;21.638;2023-04-25T09:03:49;7.68;;;4.45;;
51692;SDS011;37777;53.066;21.638;2023-04-25T09:10:51;3.88;;;3.50;;
51692;SDS011;37777;53.066;21.638;2023-04-25T09:17:56;4.20;;;3.58;;
51692;SDS011;37777;53.066;21.638;2023-04-25T09:24:58;6.22;;;5.28;;
51692;SDS011;37777;53.066;21.638;2023-04-25T09:32:17;7.70;;;6.03;;
51692;SDS011;37777;53.066;21.638;2023-04-25T09:39:19;7.10;;;5.40;;
51692;SDS011;37777;53.066;21.638;2023-04-25T09:46:23;6.78;;;5.78;;
51692;SDS011;37777;53.066;21.638;2023-04-25T09:53:26;6.90;;;5.18;;
51692;SDS011;37777;53.066;21.638;2023-04-25T10:00:28;8.23;;;6.00;;
51692;SDS011;37777;53.066;21.638;2023-04-25T10:07:31;8.27;;;6.13;;
51692;SDS011;37777;53.066;21.638;2023-04-25T10:14:32;9.52;;;6.05;;
51692;SDS011;37777;53.066;21.638;2023-04-25T10:21:34;8.02;;;6.57;;
51692;SDS011;37777;53.066;21.638;2023-04-25T10:28:58;11.15;;;7.25;;
51692;SDS011;37777;53.066;21.638;2023-04-25T10:36:13;8.68;;;6.00;;
51692;SDS011;37777;53.066;21.638;2023-04-25T10:50:45;9.43;;;4.85;;
51692;SDS011;37777;53.066;21.638;2023-04-25T10:57:47;7.43;;;5.15;;
51692;SDS011;37777;53.066;21.638;2023-04-25T11:04:51;4.78;;;3.67;;
51692;SDS011;37777;53.066;21.638;2023-04-25T11:11:56;2.55;;;2.17;;
51692;SDS011;37777;53.066;21.638;2023-04-25T11:18:59;3.17;;;2.88;;
51692;SDS011;37777;53.066;21.638;2023-04-25T11:26:01;4.32;;;3.88;;
51692;SDS011;37777;53.066;21.638;2023-04-25T11:33:03;3.45;;;3.15;;
51692;SDS011;37777;53.066;21.638;2023-04-25T11:40:05;5.22;;;4.10;;
51692;SDS011;37777;53.066;21.638;2023-04-25T11:47:11;4.75;;;3.45;;
51692;SDS011;37777;53.066;21.638;2023-04-25T11:54:13;5.13;;;4.10;;
51692;SDS011;37777;53.066;21.638;2023-04-25T12:01:25;4.80;;;4.40;;
51692;SDS011;37777;53.066;21.638;2023-04-25T12:08:31;7.18;;;4.32;;
51692;SDS011;37777;53.066;21.638;2023-04-25T12:15:34;3.90;;;3.50;;
51692;SDS011;37777;53.066;21.638;2023-04-25T12:22:36;3.72;;;3.42;;
51692;SDS011;37777;53.066;21.638;2023-04-25T12:29:38;3.70;;;3.30;;
51692;SDS011;37777;53.066;21.638;2023-04-25T12:36:50;3.35;;;3.05;;
51692;SDS011;37777;53.066;21.638;2023-04-25T12:43:52;10.73;;;5.63;;
51692;SDS011;37777;53.066;21.638;2023-04-25T12:50:54;3.67;;;3.30;;
51692;SDS011;37777;53.066;21.638;2023-04-25T12:57:56;6.97;;;3.78;;
51692;SDS011;37777;53.066;21.638;2023-04-25T13:04:58;4.32;;;3.45;;
51692;SDS011;37777;53.066;21.638;2023-04-25T13:12:00;9.02;;;4.38;;
51692;SDS011;37777;53.066;21.638;2023-04-25T13:19:02;4.88;;;3.40;;
51692;SDS011;37777;53.066;21.638;2023-04-25T13:26:04;6.60;;;3.95;;
51692;SDS011;37777;53.066;21.638;2023-04-25T13:33:06;6.53;;;2.97;;
51692;SDS011;37777;53.066;21.638;2023-04-25T13:40:09;4.25;;;3.78;;
51692;SDS011;37777;53.066;21.638;2023-04-25T13:47:12;3.53;;;3.05;;
51692;SDS011;37777;53.066;21.638;2023-04-25T13:54:14;3.80;;;3.42;;
51692;SDS011;37777;53.066;21.638;2023-04-25T14:01:16;4.05;;;3.22;;
51692;SDS011;37777;53.066;21.638;2023-04-25T14:08:18;4.20;;;3.65;;
51692;SDS011;37777;53.066;21.638;2023-04-25T14:15:20;4.43;;;3.97;;
51692;SDS011;37777;53.066;21.638;2023-04-25T14:22:22;4.80;;;3.67;;
51692;SDS011;37777;53.066;21.638;2023-04-25T14:29:23;5.75;;;3.97;;
51692;SDS011;37777;53.066;21.638;2023-04-25T14:36:26;6.68;;;5.05;;
51692;SDS011;37777;53.066;21.638;2023-04-25T14:43:28;7.15;;;5.03;;
51692;SDS011;37777;53.066;21.638;2023-04-25T14:50:29;5.72;;;4.68;;
51692;SDS011;37777;53.066;21.638;2023-04-25T14:57:32;4.68;;;3.72;;
51692;SDS011;37777;53.066;21.638;2023-04-25T15:04:34;3.72;;;3.42;;
51692;SDS011;37777;53.066;21.638;2023-04-25T15:11:37;8.30;;;5.47;;
51692;SDS011;37777;53.066;21.638;2023-04-25T15:18:39;7.70;;;4.80;;
51692;SDS011;37777;53.066;21.638;2023-04-25T15:25:40;6.18;;;4.70;;
51692;SDS011;37777;53.066;21.638;2023-04-25T15:32:43;4.05;;;3.63;;
51692;SDS011;37777;53.066;21.638;2023-04-25T15:39:45;4.25;;;3.67;;
51692;SDS011;37777;53.066;21.638;2023-04-25T15:46:47;4.57;;;3.75;;
51692;SDS011;37777;53.066;21.638;2023-04-25T15:53:49;5.45;;;3.80;;
51692;SDS011;37777;53.066;21.638;2023-04-25T16:00:51;4.13;;;3.72;;
51692;SDS011;37777;53.066;21.638;2023-04-25T16:07:53;6.95;;;3.90;;
51692;SDS011;37777;53.066;21.638;2023-04-25T16:14:56;5.82;;;4.78;;
51692;SDS011;37777;53.066;21.638;2023-04-25T16:21:58;7.38;;;5.05;;
51692;SDS011;37777;53.066;21.638;2023-04-25T16:29:02;6.28;;;4.50;;
51692;SDS011;37777;53.066;21.638;2023-04-25T16:36:04;8.95;;;5.72;;
51692;SDS011;37777;53.066;21.638;2023-04-25T16:43:06;6.03;;;5.10;;
51692;SDS011;37777;53.066;21.638;2023-04-25T16:50:08;13.98;;;5.88;;
51692;SDS011;37777;53.066;21.638;2023-04-25T16:57:10;12.73;;;7.00;;
51692;SDS011;37777;53.066;21.638;2023-04-25T17:04:12;16.02;;;7.85;;
51692;SDS011;37777;53.066;21.638;2023-04-25T17:11:16;19.98;;;8.95;;
51692;SDS011;37777;53.066;21.638;2023-04-25T17:18:18;19.65;;;7.88;;
51692;SDS011;37777;53.066;21.638;2023-04-25T17:25:26;18.30;;;9.77;;
51692;SDS011;37777;53.066;21.638;2023-04-25T17:32:33;18.90;;;8.98;;
51692;SDS011;37777;53.066;21.638;2023-04-25T17:39:37;11.82;;;7.57;;
51692;SDS011;37777;53.066;21.638;2023-04-25T17:46:41;16.75;;;8.88;;
51692;SDS011;37777;53.066;21.638;2023-04-25T17:53:43;12.73;;;8.23;;
51692;SDS011;37777;53.066;21.638;2023-04-25T18:00:46;15.50;;;9.15;;
51692;SDS011;37777;53.066;21.638;2023-04-25T18:07:48;16.60;;;9.32;;
51692;SDS011;37777;53.066;21.638;2023-04-25T18:14:50;13.25;;;8.70;;
51692;SDS011;37777;53.066;21.638;2023-04-25T18:22:01;16.80;;;9.85;;
51692;SDS011;37777;53.066;21.638;2023-04-25T18:29:05;20.10;;;9.55;;
51692;SDS011;37777;53.066;21.638;2023-04-25T18:36:14;19.48;;;10.48;;
51692;SDS011;37777;53.066;21.638;2023-04-25T18:43:16;17.20;;;9.52;;
51692;SDS011;37777;53.066;21.638;2023-04-25T18:50:20;17.05;;;9.10;;
51692;SDS011;37777;53.066;21.638;2023-04-25T18:57:24;19.67;;;8.80;;
51692;SDS011;37777;53.066;21.638;2023-04-25T19:04:29;17.30;;;8.82;;
51692;SDS011;37777;53.066;21.638;2023-04-25T19:11:32;17.17;;;9.25;;
51692;SDS011;37777;53.066;21.638;2023-04-25T19:18:34;12.20;;;7.65;;
51692;SDS011;37777;53.066;21.638;2023-04-25T19:25:36;20.25;;;9.43;;
51692;SDS011;37777;53.066;21.638;2023-04-25T19:32:39;13.20;;;8.75;;
51692;SDS011;37777;53.066;21.638;2023-04-25T19:39:41;16.65;;;9.00;;
51692;SDS011;37777;53.066;21.638;2023-04-25T19:46:44;18.27;;;9.07;;
51692;SDS011;37777;53.066;21.638;2023-04-25T19:53:47;15.48;;;8.70;;
51692;SDS011;37777;53.066;21.638;2023-04-25T20:00:50;15.27;;;8.38;;
51692;SDS011;37777;53.066;21.638;2023-04-25T20:07:53;16.50;;;6.80;;
51692;SDS011;37777;53.066;21.638;2023-04-25T20:14:55;11.05;;;6.10;;
51692;SDS011;37777;53.066;21.638;2023-04-25T20:21:58;10.57;;;6.15;;
51692;SDS011;37777;53.066;21.638;2023-04-25T20:29:00;11.32;;;6.38;;
51692;SDS011;37777;53.066;21.638;2023-04-25T20:36:03;15.10;;;6.82;;
51692;SDS011;37777;53.066;21.638;2023-04-25T20:43:05;7.88;;;5.63;;
51692;SDS011;37777;53.066;21.638;2023-04-25T20:50:07;8.23;;;4.38;;
51692;SDS011;37777;53.066;21.638;2023-04-25T20:57:09;6.05;;;3.70;;
51692;SDS011;37777;53.066;21.638;2023-04-25T21:04:11;6.22;;;3.35;;
51692;SDS011;37777;53.066;21.638;2023-04-25T21:11:13;4.35;;;3.63;;
51692;SDS011;37777;53.066;21.638;2023-04-25T21:18:15;3.53;;;3.22;;
51692;SDS011;37777;53.066;21.638;2023-04-25T21:25:17;5.75;;;3.53;;
51692;SDS011;37777;53.066;21.638;2023-04-25T21:32:24;5.53;;;3.83;;
51692;SDS011;37777;53.066;21.638;2023-04-25T21:39:27;5.05;;;3.83;;
51692;SDS011;37777;53.066;21.638;2023-04-25T21:46:29;6.43;;;3.85;;
51692;SDS011;37777;53.066;21.638;2023-04-25T21:53:31;8.88;;;3.08;;
51692;SDS011;37777;53.066;21.638;2023-04-25T22:00:33;16.17;;;3.58;;
51692;SDS011;37777;53.066;21.638;2023-04-25T22:07:35;11.02;;;3.40;;
51692;SDS011;37777;53.066;21.638;2023-04-25T22:14:37;6.90;;;3.65;;
51692;SDS011;37777;53.066;21.638;2023-04-25T22:21:39;5.85;;;3.97;;
51692;SDS011;37777;53.066;21.638;2023-04-25T22:28:41;6.68;;;3.80;;
51692;SDS011;37777;53.066;21.638;2023-04-25T22:35:43;7.35;;;3.95;;
51692;SDS011;37777;53.066;21.638;2023-04-25T22:42:44;4.97;;;3.30;;
51692;SDS011;37777;53.066;21.638;2023-04-25T22:49:46;7.13;;;3.75;;
51692;SDS011;37777;53.066;21.638;2023-04-25T22:56:48;5.25;;;3.95;;
51692;SDS011;37777;53.066;21.638;2023-04-25T23:03:50;5.90;;;3.97;;
51692;SDS011;37777;53.066;21.638;2023-04-25T23:10:52;10.65;;;4.57;;
51692;SDS011;37777;53.066;21.638;2023-04-25T23:17:55;8.63;;;3.60;;
51692;SDS011;37777;53.066;21.638;2023-04-25T23:24:57;9.38;;;4.40;;
51692;SDS011;37777;53.066;21.638;2023-04-25T23:31:59;4.47;;;3.53;;
51692;SDS011;37777;53.066;21.638;2023-04-25T23:39:04;4.55;;;3.00;;
51692;SDS011;37777;53.066;21.638;2023-04-25T23:46:06;9.55;;;3.67;;
51692;SDS011;37777;53.066;21.638;2023-04-25T23:53:10;5.43;;;3.45;;
